Time;durP1;ratioP1;P1;durP2;ratioP2;P2;SDS_P1;SDS_P2;PMS_P1;PMS_P2;Temp;Humidity;BMP_temperature;BMP_pressure;BME280_temperature;BME280_humidity;BME280_pressure;Samples;Min_cycle;Max_cycle;Signal;HPM_P1;HPM_P2
2022/07/05 00:00:09;;;;;;;5.57;3.25;;;;;;;18.12;58.85;102032.53;5034267;28;20113;-62
2022/07/05 00:02:34;;;;;;;5.90;3.35;;;;;;;18.02;59.00;102034.28;5034092;28;20053;-63
2022/07/05 00:04:59;;;;;;;5.95;3.42;;;;;;;17.95;59.20;102033.41;5034070;28;20064;-63
2022/07/05 00:07:25;;;;;;;6.72;3.67;;;;;;;17.90;59.51;102036.97;5031979;28;20051;-62
2022/07/05 00:09:56;;;;;;;5.47;3.70;;;;;;;17.88;59.34;102031.63;5034041;28;20075;-63
2022/07/05 00:12:25;;;;;;;7.25;3.80;;;;;;;17.85;59.59;102026.28;5034140;28;20026;-63
2022/07/05 00:14:50;;;;;;;7.47;3.80;;;;;;;17.75;59.49;102024.50;5033962;28;20017;-63
2022/07/05 00:17:16;;;;;;;7.45;3.80;;;;;;;17.77;59.45;102030.72;5033979;28;20037;-64
2022/07/05 00:19:42;;;;;;;6.97;3.63;;;;;;;17.63;59.84;102030.69;5033733;28;20478;-62
2022/07/05 00:22:07;;;;;;;5.07;3.85;;;;;;;17.63;59.84;102020.00;5033786;28;20441;-63
2022/07/05 00:24:33;;;;;;;5.43;3.78;;;;;;;17.60;60.02;102028.03;5033789;28;20033;-63
2022/07/05 00:26:58;;;;;;;8.75;3.90;;;;;;;17.51;60.52;102025.34;5033696;28;20036;-63
2022/07/05 00:29:24;;;;;;;6.43;4.00;;;;;;;17.47;60.74;102024.47;5033675;28;20029;-62
2022/07/05 00:31:49;;;;;;;6.25;4.07;;;;;;;17.38;61.19;102020.88;5033720;28;20144;-63
2022/07/05 00:34:15;;;;;;;5.68;3.78;;;;;;;17.43;60.99;102016.41;5033540;28;20022;-63
2022/07/05 00:36:40;;;;;;;5.30;3.85;;;;;;;17.50;60.50;102028.91;5032319;28;20034;-63
2022/07/05 00:39:07;;;;;;;7.95;4.05;;;;;;;17.66;60.09;102017.34;5033585;28;20034;-62
2022/07/05 00:41:33;;;;;;;7.72;4.00;;;;;;;17.46;60.51;102008.41;5033661;28;20485;-63
2022/07/05 00:44:02;;;;;;;5.60;4.00;;;;;;;17.37;60.50;102022.66;5033549;28;20470;-63
2022/07/05 00:46:28;;;;;;;6.68;4.20;;;;;;;17.27;60.95;102020.88;5033324;28;20029;-63
2022/07/05 00:48:54;;;;;;;6.07;4.30;;;;;;;17.21;60.93;102019.06;5033452;28;20032;-63
2022/07/05 00:51:21;;;;;;;6.85;4.22;;;;;;;17.26;61.32;102013.75;5033328;28;20496;-63
2022/07/05 00:53:47;;;;;;;7.07;4.30;;;;;;;17.25;61.31;102019.97;5033245;28;20025;-63
2022/07/05 00:56:12;;;;;;;6.43;4.57;;;;;;;17.14;61.44;102019.06;5032249;28;20080;-62
2022/07/05 00:58:38;;;;;;;7.38;4.18;;;;;;;17.03;61.76;102027.91;5033169;28;20033;-63
2022/07/05 01:01:06;;;;;;;8.75;4.78;;;;;;;16.90;62.19;102030.56;5033284;28;20057;-63
2022/07/05 01:03:32;;;;;;;8.05;4.68;;;;;;;16.77;63.07;102029.63;5031874;28;20035;-63
2022/07/05 01:06:00;;;;;;;5.65;4.50;;;;;;;16.59;63.78;102025.06;5033027;28;20064;-63
2022/07/05 01:08:27;;;;;;;6.03;4.38;;;;;;;16.65;63.11;102032.19;5033240;28;20055;-63
2022/07/05 01:10:54;;;;;;;8.63;4.50;;;;;;;16.68;63.05;102034.88;5033080;28;20029;-63
2022/07/05 01:13:20;;;;;;;5.55;4.47;;;;;;;16.79;62.43;102035.88;5033083;28;20036;-63
2022/07/05 01:15:46;;;;;;;7.20;4.68;;;;;;;16.87;62.07;102031.41;5032958;28;20025;-63
2022/07/05 01:18:12;;;;;;;6.70;4.60;;;;;;;16.77;62.73;102029.63;5048424;28;20068;-62
2022/07/05 01:20:38;;;;;;;10.50;4.22;;;;;;;16.53;63.55;102022.38;5033061;28;20596;-63
2022/07/05 01:23:04;;;;;;;5.70;4.28;;;;;;;16.50;63.49;102031.25;5033044;28;20028;-62
2022/07/05 01:25:31;;;;;;;8.77;4.47;;;;;;;16.62;63.12;102029.53;5032841;28;20042;-63
2022/07/05 01:27:58;;;;;;;7.03;4.30;;;;;;;16.63;62.97;102033.97;5033213;28;20013;-61
2022/07/05 01:30:24;;;;;;;9.50;4.50;;;;;;;16.73;62.79;102027.81;5032627;28;20030;-63
2022/07/05 01:32:50;;;;;;;8.57;4.30;;;;;;;16.82;62.21;102029.63;5033058;28;20379;-62
2022/07/05 01:35:20;;;;;;;8.00;4.35;;;;;;;16.84;62.03;102020.75;5033317;28;20478;-62
2022/07/05 01:37:47;;;;;;;5.95;4.43;;;;;;;16.81;62.03;102019.84;5033089;28;20037;-62
2022/07/05 01:40:13;;;;;;;5.38;4.15;;;;;;;16.63;62.83;102024.19;5033256;28;20060;-62
2022/07/05 01:42:40;;;;;;;7.90;4.78;;;;;;;16.49;63.14;102024.13;5032691;28;20095;-62
2022/07/05 01:45:06;;;;;;;7.13;4.50;;;;;;;16.32;63.55;102030.25;5032928;28;20087;-62
2022/07/05 01:47:36;;;;;;;5.75;4.43;;;;;;;16.10;63.97;102035.44;5033071;28;20379;-62
2022/07/05 01:50:04;;;;;;;6.75;4.60;;;;;;;15.94;64.57;102031.78;5032872;28;20017;-63
2022/07/05 01:52:33;;;;;;;5.38;4.38;;;;;;;15.78;65.65;102032.53;5032417;28;20076;-63
2022/07/05 01:55:00;;;;;;;12.88;4.43;;;;;;;15.75;65.74;102037.81;5032639;28;20102;-62
2022/07/05 01:57:26;;;;;;;6.10;4.50;;;;;;;15.68;66.00;102033.34;5032452;28;20033;-63
2022/07/05 01:59:52;;;;;;;7.28;4.28;;;;;;;15.59;66.49;102028.78;5032678;28;20108;-63
2022/07/05 02:02:17;;;;;;;8.13;4.40;;;;;;;15.60;66.46;102019.91;5031484;28;20693;-62
2022/07/05 02:04:42;;;;;;;13.00;4.60;;;;;;;15.64;66.08;102026.16;5032397;28;20386;-63
2022/07/05 02:07:09;;;;;;;5.88;4.50;;;;;;;15.65;65.94;102028.84;5032425;28;20041;-63
2022/07/05 02:09:35;;;;;;;7.00;4.40;;;;;;;15.77;65.57;102026.31;5032791;28;20036;-62
2022/07/05 02:12:02;;;;;;;6.93;4.13;;;;;;;15.89;65.03;102017.53;5032339;28;20148;-63
2022/07/05 02:14:27;;;;;;;6.25;4.57;;;;;;;15.99;64.54;102018.47;5032608;28;20096;-63
2022/07/05 02:16:53;;;;;;;5.70;4.70;;;;;;;15.98;64.26;102019.34;5032614;28;20069;-62
2022/07/05 02:19:18;;;;;;;6.85;4.25;;;;;;;16.07;63.81;102013.19;5032653;28;20550;-62
2022/07/05 02:21:44;;;;;;;9.70;4.40;;;;;;;15.95;64.58;102019.31;5032325;28;20045;-62
2022/07/05 02:24:09;;;;;;;8.02;4.68;;;;;;;15.95;64.54;102008.66;5032318;28;20022;-62
2022/07/05 02:26:35;;;;;;;6.80;4.68;;;;;;;15.92;64.50;102012.19;5032481;28;20417;-63
2022/07/05 02:29:02;;;;;;;7.65;4.72;;;;;;;15.85;64.20;102022.81;5032229;28;20036;-63
2022/07/05 02:31:27;;;;;;;6.10;4.50;;;;;;;15.77;64.25;102018.31;5033869;28;20108;-63
2022/07/05 02:33:53;;;;;;;9.10;4.65;;;;;;;15.68;64.68;102030.66;5035785;28;20542;-63
2022/07/05 02:36:18;;;;;;;9.20;4.30;;;;;;;15.59;65.36;102030.53;5035867;28;20032;-62
2022/07/05 02:38:44;;;;;;;8.90;4.70;;;;;;;15.62;65.47;102027.91;5035665;28;20032;-62
2022/07/05 02:41:11;;;;;;;7.38;4.60;;;;;;;15.75;65.00;102029.81;5034536;28;20112;-62
2022/07/05 02:43:37;;;;;;;6.50;4.32;;;;;;;15.83;64.35;102027.22;5035718;28;20477;-63
2022/07/05 02:46:04;;;;;;;8.82;4.72;;;;;;;15.89;64.22;102027.28;5036003;28;20026;-63
2022/07/05 02:48:29;;;;;;;6.75;4.60;;;;;;;15.88;63.96;102030.81;5035557;28;20030;-62
2022/07/05 02:50:55;;;;;;;5.50;4.55;;;;;;;15.82;64.18;102034.34;5035553;28;20037;-63
2022/07/05 02:53:20;;;;;;;5.38;4.25;;;;;;;15.69;64.58;102028.00;5035522;28;20108;-62
2022/07/05 02:55:46;;;;;;;7.20;4.63;;;;;;;15.56;64.76;102036.75;5035422;28;20029;-62
2022/07/05 02:58:11;;;;;;;7.00;5.00;;;;;;;15.52;65.44;102045.56;5035442;28;20022;-63
2022/07/05 03:00:36;;;;;;;7.43;5.03;;;;;;;15.50;65.63;102045.56;5035294;28;20037;-63
2022/07/05 03:03:02;;;;;;;8.60;4.90;;;;;;;15.44;66.05;102053.50;5035486;28;20486;-61
2022/07/05 03:05:28;;;;;;;8.13;5.15;;;;;;;15.55;65.83;102047.41;5035346;28;20398;-63
2022/07/05 03:07:53;;;;;;;8.07;4.90;;;;;;;15.61;65.59;102043.00;5035152;28;20076;-66
2022/07/05 03:10:19;;;;;;;7.20;4.80;;;;;;;15.61;65.33;102042.09;5035062;28;20382;-62
2022/07/05 03:12:44;;;;;;;8.70;5.20;;;;;;;15.52;65.68;102040.25;5033830;28;20029;-63
2022/07/05 03:15:10;;;;;;;7.28;4.90;;;;;;;15.41;66.13;102045.47;5035417;28;20025;-63
2022/07/05 03:17:35;;;;;;;6.80;4.85;;;;;;;15.34;66.10;102051.63;5050400;28;20032;-62
2022/07/05 03:20:01;;;;;;;13.15;5.20;;;;;;;15.28;65.95;102048.88;5034961;28;20069;-61
2022/07/05 03:22:26;;;;;;;7.78;5.57;;;;;;;15.22;66.89;102047.03;5034607;28;20470;-63
2022/07/05 03:24:51;;;;;;;9.30;5.32;;;;;;;15.27;66.78;102055.97;5035094;28;20118;-62
2022/07/05 03:27:17;;;;;;;7.10;5.40;;;;;;;15.25;66.62;102056.84;5034787;28;20028;-62
2022/07/05 03:29:42;;;;;;;11.50;5.90;;;;;;;15.25;66.24;102065.72;5034694;28;20112;-63
2022/07/05 03:32:08;;;;;;;9.02;5.68;;;;;;;15.39;66.43;102063.22;5034791;28;20037;-62
2022/07/05 03:34:33;;;;;;;7.32;5.35;;;;;;;15.49;65.87;102062.41;5034663;28;20026;-63
2022/07/05 03:36:58;;;;;;;14.30;5.80;;;;;;;15.39;66.09;102057.00;5034904;28;20024;-63
2022/07/05 03:39:24;;;;;;;7.88;5.68;;;;;;;15.41;66.09;102068.53;5034642;28;20447;-65
2022/07/05 03:41:49;;;;;;;9.20;5.50;;;;;;;15.45;65.61;102067.69;5034165;28;20029;-62
2022/07/05 03:44:15;;;;;;;8.15;5.57;;;;;;;15.51;65.70;102060.69;5033680;28;20430;-63
2022/07/05 03:46:40;;;;;;;8.13;5.18;;;;;;;15.50;65.10;102056.22;5034280;28;20371;-62
2022/07/05 03:49:06;;;;;;;6.65;5.20;;;;;;;15.48;65.46;102068.63;5033511;28;20539;-63
2022/07/05 03:51:31;;;;;;;7.38;5.30;;;;;;;15.28;66.63;102063.06;5034370;28;20421;-62
2022/07/05 03:53:56;;;;;;;8.35;5.32;;;;;;;15.07;67.58;102062.84;5034225;28;20053;-63
2022/07/05 03:56:23;;;;;;;8.65;5.35;;;;;;;14.99;67.67;102062.78;5033075;28;20030;-63
2022/07/05 03:58:51;;;;;;;8.85;5.00;;;;;;;14.98;68.07;102063.63;5034201;28;20398;-62
2022/07/05 04:01:17;;;;;;;10.45;4.93;;;;;;;15.07;68.11;102076.16;5034258;28;20064;-62
2022/07/05 04:03:42;;;;;;;6.18;5.32;;;;;;;15.12;67.60;102077.13;5034165;28;20061;-62
2022/07/05 04:06:09;;;;;;;10.15;5.68;;;;;;;15.06;68.39;102076.13;5034038;28;20037;-62
2022/07/05 04:08:35;;;;;;;7.00;5.60;;;;;;;15.15;68.07;102079.78;5034049;28;20064;-62
2022/07/05 04:11:00;;;;;;;9.00;6.00;;;;;;;15.10;68.59;102077.97;5033776;28;20049;-63
2022/07/05 04:13:26;;;;;;;7.43;5.80;;;;;;;15.13;68.81;102081.56;5034225;28;20053;-62
2022/07/05 04:15:53;;;;;;;12.07;6.10;;;;;;;15.13;68.95;102086.00;5033940;28;20548;-63
2022/07/05 04:18:18;;;;;;;8.55;6.43;;;;;;;15.05;69.92;102082.34;5033817;28;20372;-63
2022/07/05 04:20:44;;;;;;;10.07;6.75;;;;;;;14.97;70.64;102082.25;5033850;28;20032;-62
2022/07/05 04:23:09;;;;;;;10.88;7.25;;;;;;;14.92;71.46;102084.84;5048929;28;20495;-62
2022/07/05 04:25:35;;;;;;;14.30;7.32;;;;;;;14.88;71.69;102082.13;5033539;28;20116;-63
2022/07/05 04:28:00;;;;;;;14.50;7.90;;;;;;;14.83;72.21;102079.41;5033655;28;20069;-63
2022/07/05 04:30:26;;;;;;;15.32;8.13;;;;;;;14.85;72.52;102087.41;5033630;28;20487;-61
2022/07/05 04:32:52;;;;;;;13.02;8.65;;;;;;;14.90;72.70;102091.00;5033839;28;20597;-63
2022/07/05 04:35:17;;;;;;;14.75;8.95;;;;;;;14.94;72.53;102091.06;5049119;28;20168;-63
2022/07/05 04:37:43;;;;;;;16.52;8.80;;;;;;;15.06;72.40;102087.69;5033856;28;20509;-62
2022/07/05 04:40:11;;;;;;;13.27;9.13;;;;;;;15.18;72.32;102084.28;5033695;28;20382;-63
2022/07/05 04:42:37;;;;;;;10.88;8.23;;;;;;;15.39;71.57;102095.16;5033913;28;20013;-62
2022/07/05 04:45:03;;;;;;;11.70;8.95;;;;;;;15.47;70.76;102097.94;5033501;28;20033;-62
2022/07/05 04:47:28;;;;;;;10.32;7.15;;;;;;;15.69;70.56;102094.63;5033388;28;20386;-63
2022/07/05 04:49:57;;;;;;;10.30;7.35;;;;;;;15.76;70.15;102093.81;5048729;28;20033;-63
2022/07/05 04:52:22;;;;;;;10.98;6.88;;;;;;;15.93;69.90;102093.03;5033105;28;20025;-63
2022/07/05 04:54:48;;;;;;;13.65;7.35;;;;;;;16.09;69.10;102083.41;5033160;28;20037;-63
2022/07/05 04:57:13;;;;;;;13.70;7.45;;;;;;;16.02;69.60;102087.81;5033351;28;20080;-62
2022/07/05 04:59:38;;;;;;;11.45;7.88;;;;;;;15.92;70.06;102086.81;5033352;28;20168;-62
2022/07/05 05:02:04;;;;;;;13.32;7.55;;;;;;;15.81;70.74;102092.97;5033572;28;20466;-62
2022/07/05 05:04:29;;;;;;;11.38;8.10;;;;;;;15.71;71.50;102092.84;5033276;28;20029;-63
2022/07/05 05:06:55;;;;;;;11.13;8.00;;;;;;;15.68;71.57;102082.19;5031995;28;20037;-61
2022/07/05 05:09:20;;;;;;;12.02;8.38;;;;;;;15.86;70.93;102070.78;5032966;28;20036;-62
2022/07/05 05:11:46;;;;;;;13.50;8.27;;;;;;;15.96;70.77;102069.97;5033331;28;20042;-62
2022/07/05 05:14:12;;;;;;;14.02;8.45;;;;;;;16.08;70.58;102077.19;5033102;28;20036;-62
2022/07/05 05:16:37;;;;;;;12.25;8.93;;;;;;;16.07;71.13;102091.41;5033030;28;20467;-62
2022/07/05 05:19:02;;;;;;;12.48;8.65;;;;;;;16.05;71.81;102095.81;5033095;28;20497;-63
2022/07/05 05:21:29;;;;;;;11.85;8.57;;;;;;;16.16;71.00;102088.81;5032948;28;20053;-62
2022/07/05 05:23:54;;;;;;;13.38;8.23;;;;;;;16.32;71.08;102091.59;5031410;28;20021;-63
2022/07/05 05:26:20;;;;;;;13.07;8.45;;;;;;;16.48;70.84;102096.13;5032863;28;20103;-63
2022/07/05 05:28:45;;;;;;;11.55;8.55;;;;;;;16.61;69.88;102097.09;5033017;28;20028;-62
2022/07/05 05:31:10;;;;;;;11.38;8.30;;;;;;;16.75;69.90;102096.34;5032811;28;20462;-63
2022/07/05 05:33:36;;;;;;;15.82;8.05;;;;;;;16.91;69.14;102094.63;5032972;28;20078;-62
2022/07/05 05:36:02;;;;;;;12.50;7.95;;;;;;;17.01;68.77;102096.47;5031613;28;20033;-63
2022/07/05 05:38:28;;;;;;;14.55;7.97;;;;;;;17.16;68.37;102100.97;5032748;28;20028;-63
2022/07/05 05:40:53;;;;;;;15.07;8.40;;;;;;;17.20;69.04;102112.56;5032875;28;20038;-62
2022/07/05 05:43:19;;;;;;;13.82;8.02;;;;;;;17.28;67.99;102119.72;5032797;28;20030;-63
2022/07/05 05:45:44;;;;;;;13.50;8.75;;;;;;;17.25;68.90;102113.47;5033033;28;20164;-62
2022/07/05 05:48:10;;;;;;;12.30;9.45;;;;;;;17.35;68.07;102109.94;5032881;28;20378;-63
2022/07/05 05:50:40;;;;;;;16.95;9.77;;;;;;;17.36;68.34;102113.50;5032775;28;20116;-63
2022/07/05 05:53:07;;;;;;;16.10;9.13;;;;;;;17.40;68.55;102132.22;5032509;28;20029;-62
2022/07/05 05:55:33;;;;;;;15.15;8.93;;;;;;;17.39;68.96;102126.88;5032847;28;20108;-62
2022/07/05 05:58:18;;;;;;;12.02;8.35;;;;;;;17.46;67.86;102131.34;5032728;28;20065;-62
2022/07/05 06:00:48;;;;;;;13.82;7.80;;;;;;;17.56;67.05;102125.16;5032750;28;20122;-62
2022/07/05 06:03:15;;;;;;;13.00;7.97;;;;;;;17.60;67.11;102126.94;5032792;28;20022;-63
2022/07/05 06:05:40;;;;;;;14.40;8.45;;;;;;;17.59;67.24;102129.59;5032700;28;20363;-64
2022/07/05 06:08:06;;;;;;;13.20;8.38;;;;;;;17.55;67.28;102131.38;5036290;28;20550;-63
2022/07/05 06:10:33;;;;;;;12.35;8.02;;;;;;;17.70;66.81;102134.09;5036334;28;20436;-63
2022/07/05 06:13:02;;;;;;;13.23;8.55;;;;;;;17.71;66.30;102141.22;5036502;28;20105;-63
2022/07/05 06:15:28;;;;;;;15.95;8.65;;;;;;;17.73;66.27;102138.56;5036379;28;20033;-63
2022/07/05 06:17:53;;;;;;;13.65;8.95;;;;;;;17.66;66.55;102134.97;5036174;28;20483;-63
2022/07/05 06:20:22;;;;;;;21.80;9.55;;;;;;;17.64;66.77;102136.72;5034855;28;20071;-62
2022/07/05 06:22:48;;;;;;;14.02;9.02;;;;;;;17.53;66.76;102127.81;5051180;28;20032;-62
2022/07/05 06:25:14;;;;;;;14.23;9.30;;;;;;;17.65;66.64;102130.50;5036474;28;20052;-63
2022/07/05 06:27:41;;;;;;;15.32;9.20;;;;;;;17.69;66.48;102137.66;5034809;28;20045;-63
2022/07/05 06:30:08;;;;;;;14.57;8.60;;;;;;;17.89;66.95;102139.47;5036059;28;20044;-63
2022/07/05 06:32:33;;;;;;;16.08;9.50;;;;;;;17.94;66.26;102135.94;5035824;28;20075;-61
2022/07/05 06:34:59;;;;;;;14.20;9.32;;;;;;;18.07;66.61;102143.94;5035736;28;20033;-62
2022/07/05 06:37:24;;;;;;;16.00;8.88;;;;;;;18.15;64.65;102140.38;5035851;28;20035;-62
2022/07/05 06:39:49;;;;;;;13.13;8.43;;;;;;;18.26;64.62;102148.44;5035709;28;20478;-62
2022/07/05 06:42:16;;;;;;;15.15;8.70;;;;;;;18.21;64.71;102143.09;5035831;28;20030;-63
2022/07/05 06:44:41;;;;;;;20.77;9.52;;;;;;;18.34;63.59;102145.75;5035722;28;20483;-62
2022/07/05 06:47:10;;;;;;;14.32;8.88;;;;;;;18.43;63.64;102152.00;5035785;28;20032;-62
2022/07/05 06:49:35;;;;;;;10.82;7.70;;;;;;;18.64;63.04;102156.44;5035397;28;20517;-62
2022/07/05 06:52:01;;;;;;;13.48;8.73;;;;;;;18.79;62.40;102158.19;5035498;28;20025;-62
2022/07/05 06:54:26;;;;;;;15.68;8.23;;;;;;;18.86;62.35;102159.97;5033918;28;20018;-63
2022/07/05 06:56:53;;;;;;;11.35;8.02;;;;;;;18.85;62.04;102151.97;5035291;28;20029;-61
2022/07/05 06:59:18;;;;;;;13.65;8.00;;;;;;;18.88;62.36;102150.13;5035552;28;20598;-64
2022/07/05 07:01:44;;;;;;;13.43;8.85;;;;;;;18.95;63.20;102149.25;5035307;28;20097;-62
2022/07/05 07:04:09;;;;;;;12.50;8.07;;;;;;;18.95;60.61;102157.28;5033979;28;20113;-62
2022/07/05 07:06:34;;;;;;;13.35;7.80;;;;;;;18.94;60.46;102154.63;5035043;28;20060;-63
2022/07/05 07:09:18;;;;;;;11.10;7.85;;;;;;;19.16;61.05;102153.63;5035401;28;20378;-62
2022/07/05 07:11:44;;;;;;;10.95;8.52;;;;;;;19.46;59.61;102152.59;5035007;28;20430;-62
2022/07/05 07:14:10;;;;;;;12.25;8.38;;;;;;;19.79;60.27;102155.16;5035110;28;20483;-62
2022/07/05 07:16:35;;;;;;;13.98;9.55;;;;;;;19.98;59.88;102160.34;5034752;28;20037;-63
2022/07/05 07:19:01;;;;;;;13.88;9.88;;;;;;;20.04;58.57;102151.34;5035087;28;20048;-62
2022/07/05 07:21:26;;;;;;;16.50;9.85;;;;;;;20.25;58.63;102159.25;5035347;28;20063;-63
2022/07/05 07:23:52;;;;;;;16.55;9.25;;;;;;;20.39;58.85;102160.94;5034678;28;20032;-62
2022/07/05 07:26:17;;;;;;;14.93;8.70;;;;;;;20.46;57.05;102155.47;5035070;28;20117;-63
2022/07/05 07:28:42;;;;;;;17.60;9.50;;;;;;;20.39;57.53;102160.94;5034856;28;20030;-63
2022/07/05 07:31:08;;;;;;;13.82;8.18;;;;;;;20.27;58.43;102170.88;5034938;28;20033;-64
2022/07/05 07:33:33;;;;;;;12.02;8.30;;;;;;;20.44;57.84;102176.09;5034828;28;20022;-64
2022/07/05 07:36:00;;;;;;;13.82;8.07;;;;;;;20.48;58.29;102161.78;5034933;28;20482;-62
2022/07/05 07:38:25;;;;;;;15.55;7.93;;;;;;;20.49;58.17;102163.53;5034939;28;20043;-62
2022/07/05 07:40:52;;;;;;;14.55;7.20;;;;;;;20.59;58.64;102172.41;5034702;28;20538;-63
2022/07/05 07:43:17;;;;;;;11.20;6.90;;;;;;;20.60;59.49;102174.22;5034750;28;20391;-63
2022/07/05 07:45:43;;;;;;;11.18;6.35;;;;;;;20.70;57.64;102164.25;5034350;28;20030;-63
2022/07/05 07:48:08;;;;;;;13.63;6.53;;;;;;;20.64;58.19;102177.72;5034581;28;20053;-62
2022/07/05 07:50:34;;;;;;;11.95;5.93;;;;;;;20.74;57.59;102174.06;5034468;28;20521;-63
2022/07/05 07:52:59;;;;;;;11.70;6.22;;;;;;;20.81;57.83;102170.38;5034239;28;20468;-63
2022/07/05 07:55:25;;;;;;;14.00;6.43;;;;;;;20.96;58.11;102167.53;5034361;28;20038;-62
2022/07/05 07:57:50;;;;;;;9.05;5.20;;;;;;;21.04;56.86;102170.16;5034377;28;20021;-62
2022/07/05 08:00:16;;;;;;;11.45;5.25;;;;;;;21.08;57.17;102171.00;5034338;28;20061;-63
2022/07/05 08:02:41;;;;;;;12.77;5.60;;;;;;;21.15;56.42;102170.00;5034104;28;20022;-63
2022/07/05 08:05:09;;;;;;;11.07;6.18;;;;;;;20.85;57.36;102171.25;5034553;28;20036;-62
2022/07/05 08:07:38;;;;;;;11.27;5.53;;;;;;;20.69;58.14;102175.91;5033973;28;20380;-62
2022/07/05 08:10:07;;;;;;;14.25;6.15;;;;;;;20.82;59.11;102169.50;5034364;28;20124;-62
2022/07/05 08:12:33;;;;;;;14.77;5.18;;;;;;;20.96;57.50;102169.34;5033909;28;20387;-63
2022/07/05 08:14:59;;;;;;;10.27;5.88;;;;;;;21.09;58.54;102178.16;5034161;28;20037;-63
2022/07/05 08:17:24;;;;;;;13.93;6.57;;;;;;;21.12;57.60;102175.44;5034039;28;20034;-63
2022/07/05 08:22:34;;;;;;;16.45;6.57;;;;;;;21.23;57.76;102181.56;5034011;28;20493;-63
2022/07/05 08:24:59;;;;;;;13.18;5.93;;;;;;;21.46;56.72;102176.84;5034109;28;20022;-61
2022/07/05 08:27:25;;;;;;;13.77;6.25;;;;;;;21.56;56.71;102177.59;5033852;28;20025;-63
2022/07/05 08:29:51;;;;;;;17.30;6.03;;;;;;;21.68;55.69;102174.72;5033068;28;20444;-62
2022/07/05 08:32:17;;;;;;;16.25;5.85;;;;;;;21.91;55.25;102181.56;5033561;28;20034;-64
2022/07/05 08:34:43;;;;;;;12.38;5.78;;;;;;;22.12;55.86;102178.59;5033652;28;20018;-63
2022/07/05 08:37:08;;;;;;;13.38;6.35;;;;;;;22.13;55.16;102185.75;5048969;28;20026;-62
2022/07/05 08:39:34;;;;;;;11.82;5.53;;;;;;;22.27;53.87;102181.94;5033579;28;20037;-63
2022/07/05 08:42:00;;;;;;;14.38;5.75;;;;;;;22.46;53.25;102176.22;5048732;28;20021;-62
2022/07/05 08:44:29;;;;;;;9.95;5.85;;;;;;;22.55;53.37;102176.97;5033440;28;20428;-62
2022/07/05 08:46:56;;;;;;;13.45;6.25;;;;;;;22.63;53.81;102180.41;5033379;28;20029;-65
2022/07/05 08:49:26;;;;;;;10.93;5.68;;;;;;;22.62;52.81;102178.66;5033408;28;20022;-62
2022/07/05 08:51:53;;;;;;;14.40;6.10;;;;;;;22.85;53.94;102180.91;5033133;28;20025;-62
2022/07/05 08:54:21;;;;;;;16.33;7.00;;;;;;;22.97;53.70;102173.50;5033242;28;20489;-63
2022/07/05 08:56:46;;;;;;;15.43;6.95;;;;;;;23.08;51.39;102177.78;5033252;28;20056;-63
2022/07/05 08:59:12;;;;;;;13.27;6.88;;;;;;;23.19;51.13;102170.38;5033383;28;20135;-63
2022/07/05 09:01:39;;;;;;;16.10;7.03;;;;;;;23.42;51.76;102169.88;5033365;28;20090;-63
2022/07/05 09:04:07;;;;;;;15.52;7.75;;;;;;;23.94;50.44;102177.75;5032163;28;20108;-62
2022/07/05 09:06:35;;;;;;;17.13;7.75;;;;;;;24.12;49.56;102164.72;5032863;28;20056;-63
2022/07/05 09:09:02;;;;;;;10.98;6.93;;;;;;;24.17;49.29;102184.41;5033022;28;20056;-63
2022/07/05 09:11:39;;;;;;;15.85;7.35;;;;;;;24.31;48.50;102182.22;5032866;28;20041;-63
2022/07/05 09:14:06;;;;;;;12.57;7.32;;;;;;;24.56;47.84;102177.13;5033192;28;20034;-63
2022/07/05 09:16:33;;;;;;;11.60;6.40;;;;;;;24.92;47.84;102177.03;5033023;28;20048;-62
2022/07/05 09:19:07;;;;;;;17.50;6.05;;;;;;;25.18;46.42;102177.25;5033298;28;20017;-63
2022/07/05 09:21:32;;;;;;;15.88;6.18;;;;;;;25.33;45.61;102170.47;5032948;28;20108;-63
2022/07/05 09:24:01;;;;;;;13.32;5.40;;;;;;;25.44;43.19;102175.59;5032744;28;20164;-63
2022/07/05 09:26:32;;;;;;;11.02;5.22;;;;;;;25.37;44.91;102174.88;5032958;28;20057;-63
2022/07/05 09:28:59;;;;;;;10.75;4.43;;;;;;;25.69;41.12;102181.97;5033178;28;20123;-63
2022/07/05 09:31:45;;;;;;;9.35;4.55;;;;;;;25.72;42.84;102171.06;5032943;28;20029;-63
2022/07/05 09:34:13;;;;;;;11.13;4.40;;;;;;;25.94;41.09;102176.72;5032829;28;20033;-63
2022/07/05 09:36:47;;;;;;;12.13;4.43;;;;;;;25.72;41.76;102171.06;5032931;28;20053;-62
2022/07/05 09:39:13;;;;;;;9.18;4.07;;;;;;;25.28;42.19;102169.72;5032697;28;20026;-62
2022/07/05 09:41:38;;;;;;;11.68;4.85;;;;;;;25.44;42.02;102170.16;5036771;28;20144;-62
2022/07/05 09:44:03;;;;;;;13.10;5.10;;;;;;;25.52;43.51;102169.91;5036765;28;20036;-63
2022/07/05 09:46:30;;;;;;;12.73;4.60;;;;;;;25.64;40.06;102166.84;5035543;28;20033;-63
2022/07/05 09:48:55;;;;;;;8.85;4.00;;;;;;;25.85;40.74;102162.59;5036694;28;20025;-63
2022/07/05 09:51:21;;;;;;;9.00;3.50;;;;;;;26.24;37.61;102168.53;5036737;28;20029;-62
2022/07/05 09:53:58;;;;;;;9.65;3.30;;;;;;;26.54;37.51;102160.31;5036761;28;20497;-63
2022/07/05 09:56:26;;;;;;;9.63;3.40;;;;;;;26.70;37.10;102159.72;5036941;28;20029;-63
2022/07/05 09:58:52;;;;;;;5.13;3.08;;;;;;;26.51;36.11;102166.75;5036605;28;20088;-63
2022/07/05 10:01:30;;;;;;;7.90;3.22;;;;;;;26.41;37.56;102166.13;5036372;28;20065;-63
2022/07/05 10:04:02;;;;;;;8.65;3.83;;;;;;;26.07;37.33;102168.19;5036706;28;20055;-63
2022/07/05 10:06:31;;;;;;;9.82;3.92;;;;;;;25.89;37.76;102162.44;5036451;28;20067;-63
2022/07/05 10:08:56;;;;;;;8.15;3.75;;;;;;;25.62;37.86;102160.59;5036445;28;20041;-63
2022/07/05 10:11:26;;;;;;;12.15;4.85;;;;;;;25.55;38.96;102161.69;5036449;28;20030;-62
2022/07/05 10:13:53;;;;;;;6.32;3.90;;;;;;;25.30;38.67;102166.97;5036268;28;20030;-62
2022/07/05 10:16:21;;;;;;;9.38;4.40;;;;;;;25.16;38.94;102167.38;5036449;28;20044;-62
2022/07/05 10:18:51;;;;;;;10.55;3.80;;;;;;;25.11;39.85;102169.34;5036216;28;20036;-62
2022/07/05 10:21:17;;;;;;;8.80;3.72;;;;;;;24.99;40.61;102162.41;5036171;28;20438;-64
2022/07/05 10:23:48;;;;;;;7.97;3.60;;;;;;;25.04;40.93;102162.28;5036260;28;20030;-63
2022/07/05 10:26:15;;;;;;;7.57;3.55;;;;;;;25.04;41.24;102170.41;5036054;28;20029;-64
2022/07/05 10:28:44;;;;;;;8.77;3.63;;;;;;;24.93;42.53;102177.00;5036098;28;20056;-63
2022/07/05 10:31:11;;;;;;;6.95;3.67;;;;;;;24.87;42.42;102173.56;5036078;28;20043;-63
2022/07/05 10:33:37;;;;;;;8.13;4.05;;;;;;;24.62;43.14;102173.34;5036067;28;20072;-64
2022/07/05 10:36:03;;;;;;;11.55;4.00;;;;;;;24.53;43.48;102179.88;5036058;28;20053;-64
2022/07/05 10:38:30;;;;;;;8.00;4.05;;;;;;;24.41;43.04;102173.00;5035837;28;20025;-63
2022/07/05 10:41:01;;;;;;;9.13;4.20;;;;;;;24.80;42.72;102174.69;5036596;28;20125;-63
2022/07/05 10:43:28;;;;;;;10.73;4.80;;;;;;;25.26;41.50;102163.47;5036955;28;20030;-62
2022/07/05 10:45:53;;;;;;;7.25;4.30;;;;;;;25.96;40.62;102173.97;5036945;28;20022;-64
2022/07/05 10:48:23;;;;;;;8.10;4.65;;;;;;;26.04;39.63;102171.91;5035632;28;20045;-63
2022/07/05 10:51:00;;;;;;;8.55;4.60;;;;;;;26.08;40.70;102165.47;5035643;28;20125;-64
2022/07/05 10:53:29;;;;;;;11.35;5.03;;;;;;;25.79;38.50;102158.28;5034696;28;20049;-63
2022/07/05 10:55:56;;;;;;;10.20;4.80;;;;;;;26.01;38.50;102168.41;5035790;28;20040;-64
2022/07/05 10:58:24;;;;;;;12.15;5.05;;;;;;;26.15;40.31;102164.28;5035769;28;20025;-64
2022/07/05 11:01:11;;;;;;;8.60;4.78;;;;;;;26.67;39.03;102162.53;5035631;28;20108;-64
2022/07/05 11:03:39;;;;;;;10.07;4.00;;;;;;;27.07;36.55;102158.38;5035474;28;20482;-64
2022/07/05 11:06:06;;;;;;;10.32;3.20;;;;;;;27.40;35.79;102160.75;5035299;28;20033;-64
2022/07/05 11:08:57;;;;;;;11.07;3.88;;;;;;;27.97;35.58;102170.31;5035229;28;20049;-63
2022/07/05 11:11:34;;;;;;;5.88;3.30;;;;;;;27.91;34.15;102165.97;5035147;28;20029;-63
2022/07/05 11:14:01;;;;;;;7.57;3.50;;;;;;;27.90;34.44;102163.34;5035490;28;20030;-63
2022/07/05 11:16:35;;;;;;;5.43;2.97;;;;;;;27.57;34.66;102171.84;5035161;28;20030;-62
2022/07/05 11:19:17;;;;;;;6.32;2.58;;;;;;;27.13;33.54;102170.84;5050520;28;20467;-63
2022/07/05 11:22:01;;;;;;;;;;;;;;;27.19;35.48;102170.59;5035481;28;20037;-63